createdAt,value
2019-05-29T00:02:28.204Z,5.00
2019-05-29T00:05:00.186Z,4.83
2019-05-29T00:07:30.371Z,5.35
2019-05-29T00:10:00.568Z,4.70
2019-05-29T00:12:30.819Z,4.62
2019-05-29T00:15:01.162Z,4.80
2019-05-29T00:17:31.521Z,5.30
2019-05-29T00:20:01.771Z,5.15
2019-05-29T00:22:32.071Z,5.37
2019-05-29T00:25:02.338Z,5.20
2019-05-29T00:27:33.115Z,6.03
2019-05-29T00:30:04.538Z,5.97
2019-05-29T00:32:36.618Z,5.87
2019-05-29T00:37:40.152Z,5.37
2019-05-29T00:40:10.937Z,6.42
2019-05-29T00:42:41.299Z,5.65
2019-05-29T00:45:13.406Z,5.87
2019-05-29T00:50:14.120Z,5.40
2019-05-29T00:52:44.480Z,5.35
2019-05-29T00:55:14.767Z,5.40
2019-05-29T01:01:56.439Z,5.90
2019-05-29T01:04:26.992Z,6.47
2019-05-29T01:06:57.175Z,5.80
2019-05-29T01:09:27.543Z,6.60
2019-05-29T01:11:57.944Z,6.23
2019-05-29T01:14:28.159Z,5.72
2019-05-29T01:16:58.323Z,6.20
2019-05-29T01:19:28.528Z,6.58
2019-05-29T01:21:58.795Z,6.60
2019-05-29T01:24:29.087Z,5.97
2019-05-29T01:26:59.295Z,5.97
2019-05-29T01:29:29.527Z,6.97
2019-05-29T01:31:59.727Z,5.75
2019-05-29T01:34:29.899Z,6.40
2019-05-29T01:37:00.096Z,6.17
2019-05-29T01:39:30.266Z,6.75
2019-05-29T01:42:00.459Z,7.25
2019-05-29T01:44:30.727Z,6.67
2019-05-29T01:47:00.919Z,6.53
2019-05-29T01:49:31.164Z,6.15
2019-05-29T01:52:01.358Z,5.20
2019-05-29T01:54:31.551Z,6.78
2019-05-29T01:57:01.755Z,6.37
2019-05-29T01:59:31.934Z,7.20
2019-05-29T02:02:02.220Z,5.83
2019-05-29T02:04:32.540Z,6.37
2019-05-29T02:07:03.018Z,6.27
2019-05-29T02:09:33.419Z,5.92
2019-05-29T02:12:03.709Z,7.03
2019-05-29T02:14:33.996Z,6.60
2019-05-29T02:17:04.338Z,7.33
2019-05-29T02:19:34.558Z,6.17
2019-05-29T02:22:04.754Z,7.05
2019-05-29T02:24:35.079Z,7.30
2019-05-29T02:27:05.297Z,7.83
2019-05-29T02:29:35.567Z,8.03
2019-05-29T02:32:05.788Z,7.40
2019-05-29T02:34:36.792Z,6.92
2019-05-29T02:37:07.037Z,7.08
2019-05-29T02:39:37.235Z,8.10
2019-05-29T02:42:07.558Z,7.93
2019-05-29T02:44:37.799Z,7.95
2019-05-29T02:47:07.987Z,7.85
2019-05-29T02:49:38.175Z,8.10
2019-05-29T02:52:08.384Z,8.38
2019-05-29T02:54:38.556Z,7.87
2019-05-29T02:57:08.760Z,7.65
2019-05-29T02:59:38.955Z,7.92
2019-05-29T03:02:10.090Z,8.35
2019-05-29T03:04:40.269Z,7.90
2019-05-29T03:07:10.457Z,7.28
2019-05-29T03:09:40.647Z,7.40
2019-05-29T03:12:10.873Z,6.95
2019-05-29T03:14:41.121Z,7.00
2019-05-29T03:17:12.008Z,7.85
2019-05-29T03:19:42.191Z,7.92
2019-05-29T03:22:12.462Z,6.72
2019-05-29T03:24:42.709Z,7.50
2019-05-29T03:27:12.967Z,7.80
2019-05-29T03:29:43.149Z,8.10
2019-05-29T03:32:14.592Z,7.25
2019-05-29T03:34:47.228Z,7.00
2019-05-29T03:37:17.204Z,7.15
2019-05-29T03:39:47.460Z,8.10
2019-05-29T03:42:17.839Z,8.25
2019-05-29T03:44:48.012Z,6.23
2019-05-29T03:47:18.211Z,7.67
2019-05-29T03:49:48.396Z,7.37
2019-05-29T03:52:18.589Z,7.80
2019-05-29T03:54:48.786Z,7.62
2019-05-29T03:57:19.098Z,7.35
2019-05-29T03:59:50.440Z,6.22
2019-05-29T04:02:20.686Z,7.30
2019-05-29T04:04:50.892Z,7.20
2019-05-29T04:07:21.062Z,6.78
2019-05-29T04:09:51.440Z,7.77
2019-05-29T04:12:21.617Z,6.37
2019-05-29T04:14:51.807Z,6.97
2019-05-29T04:17:22.275Z,6.97
2019-05-29T04:19:52.632Z,6.33
2019-05-29T04:22:30.218Z,5.83
2019-05-29T04:25:00.175Z,5.40
2019-05-29T04:27:31.874Z,5.47
2019-05-29T04:30:02.590Z,4.97
2019-05-29T04:32:34.229Z,3.67
2019-05-29T04:35:05.259Z,2.70
2019-05-29T04:37:37.017Z,2.83
2019-05-29T04:40:07.431Z,2.25
2019-05-29T04:42:39.885Z,2.22
2019-05-29T04:45:10.422Z,2.00
2019-05-29T04:47:40.700Z,2.17
2019-05-29T04:50:10.968Z,2.12
2019-05-29T04:52:41.192Z,2.10
2019-05-29T04:55:11.402Z,1.95
2019-05-29T04:57:41.693Z,2.00
2019-05-29T05:00:11.952Z,2.00
2019-05-29T05:02:42.281Z,2.40
2019-05-29T05:05:12.517Z,2.00
2019-05-29T05:07:43.346Z,2.05
2019-05-29T05:10:17.008Z,2.10
2019-05-29T05:12:47.416Z,2.45
2019-05-29T05:15:17.666Z,2.90
2019-05-29T05:17:47.897Z,2.50
2019-05-29T05:20:18.081Z,2.85
2019-05-29T05:22:48.277Z,3.02
2019-05-29T05:25:18.459Z,2.90
2019-05-29T05:27:48.691Z,3.22
2019-05-29T05:30:18.877Z,3.25
2019-05-29T05:32:49.145Z,3.15
2019-05-29T05:35:20.497Z,3.65
2019-05-29T05:40:20.017Z,3.50
2019-05-29T05:42:50.212Z,3.47
2019-05-29T05:45:20.391Z,3.45
2019-05-29T05:47:57.435Z,3.37
2019-05-29T05:50:23.548Z,2.87
2019-05-29T05:52:53.863Z,2.70
2019-05-29T05:55:24.039Z,3.05
2019-05-29T05:57:54.326Z,3.20
2019-05-29T06:00:34.009Z,2.27
2019-05-29T06:03:05.828Z,2.65
2019-05-29T06:05:36.325Z,3.13
2019-05-29T06:08:06.976Z,2.52
2019-05-29T06:10:38.185Z,2.67
2019-05-29T06:15:38.463Z,2.50
2019-05-29T06:18:20.635Z,2.33
2019-05-29T06:20:40.953Z,2.52
2019-05-29T06:23:11.308Z,2.42
2019-05-29T06:25:42.445Z,2.10
2019-05-29T06:28:13.381Z,2.00
2019-05-29T06:30:45.075Z,1.92
2019-05-29T06:33:15.585Z,2.00
2019-05-29T06:35:45.788Z,1.87
2019-05-29T06:38:16.007Z,2.15
2019-05-29T06:40:46.229Z,2.00
2019-05-29T06:43:24.294Z,2.13
2019-05-29T06:45:56.156Z,2.00
2019-05-29T06:48:42.364Z,1.50
2019-05-29T06:50:59.969Z,1.75
2019-05-29T06:53:48.854Z,1.77
2019-05-29T06:56:19.060Z,1.95
2019-05-29T06:58:49.262Z,1.83
2019-05-29T07:01:19.469Z,2.10
2019-05-29T07:03:49.789Z,2.10
2019-05-29T07:06:20.073Z,1.50
2019-05-29T07:08:50.462Z,1.77
2019-05-29T07:11:20.916Z,2.20
2019-05-29T07:13:51.177Z,1.53
2019-05-29T07:16:21.368Z,2.00
2019-05-29T07:21:23.558Z,2.05
2019-05-29T07:23:53.765Z,1.97
2019-05-29T07:26:23.984Z,2.17
2019-05-29T07:29:06.516Z,1.80
2019-05-29T07:31:26.127Z,1.90
2019-05-29T07:33:56.330Z,2.25
2019-05-29T07:36:26.512Z,2.27
2019-05-29T07:39:03.408Z,2.40
2019-05-29T07:41:28.715Z,2.20
2019-05-29T07:43:59.098Z,2.40
2019-05-29T07:46:29.368Z,1.80
2019-05-29T07:48:59.629Z,2.20
2019-05-29T07:51:51.771Z,2.00
2019-05-29T07:54:22.014Z,1.67
2019-05-29T07:56:52.208Z,1.65
2019-05-29T07:59:22.388Z,1.80
2019-05-29T08:01:52.738Z,1.60
2019-05-29T08:04:22.912Z,1.98
2019-05-29T08:06:54.658Z,1.72
2019-05-29T08:09:25.166Z,1.50
2019-05-29T08:11:55.363Z,1.50
2019-05-29T08:14:25.617Z,1.30
2019-05-29T08:16:57.389Z,1.70
2019-05-29T08:19:28.451Z,1.30
2019-05-29T08:21:59.840Z,1.50
2019-05-29T08:24:30.070Z,1.30
2019-05-29T08:27:00.244Z,1.70
2019-05-29T08:29:30.442Z,1.70
2019-05-29T08:32:00.715Z,2.02
2019-05-29T08:34:30.922Z,1.50
2019-05-29T08:37:06.929Z,1.50
2019-05-29T08:39:36.618Z,2.10
2019-05-29T08:42:21.831Z,1.72
2019-05-29T08:44:37.142Z,1.82
2019-05-29T08:47:10.492Z,2.27
2019-05-29T08:49:39.240Z,1.72
2019-05-29T08:52:12.221Z,1.98
2019-05-29T08:54:42.067Z,2.02
2019-05-29T08:59:42.126Z,2.42
2019-05-29T09:02:12.978Z,2.20
2019-05-29T09:04:44.588Z,2.30
2019-05-29T09:07:15.083Z,2.50
2019-05-29T09:09:45.345Z,2.30
2019-05-29T09:12:15.546Z,2.25
2019-05-29T09:14:45.811Z,2.50
2019-05-29T09:17:16.847Z,2.40
2019-05-29T09:19:47.483Z,2.30
2019-05-29T09:22:18.550Z,2.10
2019-05-29T09:24:49.039Z,1.85
2019-05-29T09:27:19.316Z,2.30
2019-05-29T09:29:49.537Z,2.00
2019-05-29T09:32:40.719Z,1.87
2019-05-29T09:34:51.714Z,2.12
2019-05-29T09:37:22.434Z,2.12
2019-05-29T09:39:53.884Z,2.10
2019-05-29T09:42:25.336Z,2.20
2019-05-29T09:44:55.722Z,2.10
2019-05-29T09:47:26.465Z,2.00
2019-05-29T09:49:56.803Z,2.10
2019-05-29T09:52:30.432Z,1.90
2019-05-29T09:54:58.885Z,1.90
2019-05-29T09:57:29.098Z,1.72
2019-05-29T10:00:00.259Z,1.90
2019-05-29T10:02:31.522Z,2.10
2019-05-29T10:05:02.937Z,2.00
2019-05-29T10:07:33.667Z,2.45
2019-05-29T10:10:06.672Z,1.98
2019-05-29T10:12:36.862Z,1.95
2019-05-29T10:15:10.796Z,1.67
2019-05-29T10:17:41.068Z,1.98
2019-05-29T10:20:30.682Z,1.95
2019-05-29T10:23:01.001Z,6.30
2019-05-29T10:25:31.216Z,2.30
2019-05-29T10:28:01.420Z,2.95
2019-05-29T10:30:31.629Z,3.65
2019-05-29T10:33:02.220Z,5.42
2019-05-29T10:35:32.493Z,5.53
2019-05-29T10:38:02.875Z,2.50
2019-05-29T10:40:33.066Z,2.27
2019-05-29T10:43:03.362Z,2.30
2019-05-29T10:45:33.634Z,2.35
2019-05-29T10:48:04.656Z,1.97
2019-05-29T10:50:34.858Z,6.00
2019-05-29T10:53:05.072Z,2.27
2019-05-29T10:55:35.283Z,2.10
2019-05-29T10:58:05.544Z,2.20
2019-05-29T11:00:38.611Z,2.67
2019-05-29T11:03:07.699Z,2.10
2019-05-29T11:05:37.890Z,2.15
2019-05-29T11:08:08.139Z,2.53
2019-05-29T11:10:38.336Z,2.02
2019-05-29T11:13:08.524Z,1.98
2019-05-29T11:15:38.710Z,2.47
2019-05-29T11:18:08.882Z,2.10
2019-05-29T11:20:39.254Z,2.30
2019-05-29T11:23:09.529Z,1.92
2019-05-29T11:25:39.722Z,2.57
2019-05-29T11:28:09.943Z,1.90
2019-05-29T11:30:40.131Z,2.45
2019-05-29T11:33:10.406Z,2.60
2019-05-29T11:35:57.221Z,2.30
2019-05-29T11:38:12.570Z,2.80
2019-05-29T11:40:43.080Z,3.22
2019-05-29T11:43:13.622Z,3.10
2019-05-29T11:45:43.952Z,3.53
2019-05-29T11:48:14.146Z,3.87
2019-05-29T11:50:44.351Z,4.08
2019-05-29T11:53:14.554Z,3.77
2019-05-29T11:55:44.737Z,4.05
2019-05-29T11:58:30.157Z,4.28
2019-05-29T12:00:46.837Z,4.17
2019-05-29T12:03:17.040Z,4.60
2019-05-29T12:05:47.226Z,4.53
2019-05-29T12:08:30.238Z,4.28
2019-05-29T12:11:01.515Z,4.80
2019-05-29T12:13:31.840Z,5.22
2019-05-29T12:16:02.028Z,5.10
2019-05-29T12:18:33.582Z,4.22
2019-05-29T12:21:03.765Z,4.85
2019-05-29T12:23:33.968Z,5.33
2019-05-29T12:26:19.793Z,5.10
2019-05-29T12:28:36.238Z,4.42
2019-05-29T12:31:06.411Z,4.43
2019-05-29T12:33:36.629Z,4.28
2019-05-29T12:36:06.949Z,4.35
2019-05-29T12:38:37.156Z,4.27
2019-05-29T12:41:07.356Z,4.47
2019-05-29T12:43:37.607Z,4.62
2019-05-29T12:46:07.812Z,4.47
2019-05-29T12:48:37.997Z,4.87
2019-05-29T12:51:08.259Z,4.62
2019-05-29T12:53:38.496Z,4.50
2019-05-29T12:56:08.758Z,4.05
2019-05-29T12:58:39.022Z,4.37
2019-05-29T13:01:09.276Z,4.73
2019-05-29T13:03:39.488Z,5.25
2019-05-29T13:06:09.695Z,5.12
2019-05-29T13:08:39.895Z,4.97
2019-05-29T13:11:10.084Z,5.50
2019-05-29T13:13:40.446Z,5.70
2019-05-29T13:16:10.630Z,6.25
2019-05-29T13:18:40.828Z,5.67
2019-05-29T13:21:11.013Z,5.67
2019-05-29T13:23:45.156Z,5.65
2019-05-29T13:26:13.219Z,5.78
2019-05-29T13:28:43.579Z,5.60
2019-05-29T13:31:13.817Z,5.60
2019-05-29T13:33:44.228Z,6.03
2019-05-29T13:36:14.435Z,6.42
2019-05-29T13:38:44.712Z,5.75
2019-05-29T13:41:15.009Z,5.80
2019-05-29T13:43:45.260Z,5.90
2019-05-29T13:46:15.573Z,6.05
2019-05-29T13:48:45.959Z,5.67
2019-05-29T13:51:16.390Z,5.28
2019-05-29T13:54:02.036Z,3.80
2019-05-29T13:56:18.711Z,4.05
2019-05-29T13:58:48.921Z,4.20
2019-05-29T14:01:19.131Z,4.22
2019-05-29T14:03:50.596Z,4.12
2019-05-29T14:06:21.001Z,4.10
2019-05-29T14:08:51.190Z,4.67
2019-05-29T14:11:21.470Z,4.28
2019-05-29T14:13:51.783Z,4.60
2019-05-29T14:16:22.063Z,4.05
2019-05-29T14:18:52.340Z,4.17
2019-05-29T14:21:22.875Z,4.70
2019-05-29T14:23:53.150Z,4.62
2019-05-29T14:26:23.419Z,3.93
2019-05-29T14:28:53.744Z,2.80
2019-05-29T14:31:24.084Z,2.70
2019-05-29T14:33:54.372Z,3.40
2019-05-29T14:36:24.585Z,3.50
2019-05-29T14:38:54.833Z,3.57
2019-05-29T14:41:25.008Z,4.00
2019-05-29T14:43:56.274Z,3.80
2019-05-29T14:46:26.447Z,3.10
2019-05-29T14:48:56.830Z,3.03
2019-05-29T14:51:27.007Z,2.60
2019-05-29T14:53:57.292Z,2.42
2019-05-29T14:56:28.337Z,2.50
2019-05-29T14:58:58.645Z,2.42
2019-05-29T15:01:28.935Z,2.73
2019-05-29T15:03:59.192Z,2.62
2019-05-29T15:06:29.460Z,2.97
2019-05-29T15:08:59.747Z,2.80
2019-05-29T15:11:29.972Z,2.98
2019-05-29T15:14:00.173Z,3.02
2019-05-29T15:16:30.506Z,2.60
2019-05-29T15:19:00.776Z,2.50
2019-05-29T15:21:31.088Z,2.90
2019-05-29T15:24:01.336Z,2.77
2019-05-29T15:26:31.659Z,3.00
2019-05-29T15:29:01.898Z,3.13
2019-05-29T15:31:32.200Z,2.80
2019-05-29T15:34:02.424Z,3.15
2019-05-29T15:36:32.598Z,3.02
2019-05-29T15:39:02.809Z,3.17
2019-05-29T15:41:32.996Z,3.12
2019-05-29T15:44:03.398Z,3.40
2019-05-29T15:46:33.716Z,3.30
2019-05-29T15:49:03.930Z,3.60
2019-05-29T15:51:34.118Z,3.35
2019-05-29T15:54:04.608Z,2.98
2019-05-29T15:56:34.812Z,4.08
2019-05-29T15:59:05.349Z,3.67
2019-05-29T16:01:35.696Z,3.70
2019-05-29T16:04:05.915Z,3.20
2019-05-29T16:06:36.173Z,3.20
2019-05-29T16:09:08.189Z,3.05
2019-05-29T16:11:38.705Z,3.98
2019-05-29T16:14:08.951Z,3.67
2019-05-29T16:16:39.163Z,3.85
2019-05-29T16:19:10.038Z,3.90
2019-05-29T16:21:40.296Z,4.50
2019-05-29T16:24:10.686Z,4.00
2019-05-29T16:26:40.912Z,4.43
2019-05-29T16:29:12.252Z,3.90
2019-05-29T16:31:42.631Z,4.42
2019-05-29T16:34:14.426Z,4.75
2019-05-29T16:36:45.026Z,4.20
2019-05-29T16:39:15.723Z,4.67
2019-05-29T16:41:49.155Z,4.87
2019-05-29T16:44:24.420Z,4.47
2019-05-29T16:46:51.328Z,4.90
2019-05-29T16:49:26.083Z,5.08
2019-05-29T16:51:56.981Z,5.62
2019-05-29T16:54:27.266Z,5.37
2019-05-29T16:57:19.284Z,5.67
2019-05-29T16:59:49.798Z,5.67
2019-05-29T17:02:19.980Z,5.10
2019-05-29T17:04:50.172Z,5.60
2019-05-29T17:07:20.368Z,5.60
2019-05-29T17:09:50.663Z,5.53
2019-05-29T17:12:39.301Z,5.85
2019-05-29T17:15:11.094Z,6.12
2019-05-29T17:17:41.270Z,5.50
2019-05-29T17:20:14.539Z,5.95
2019-05-29T17:22:44.896Z,6.10
2019-05-29T17:25:15.104Z,6.08
2019-05-29T17:27:45.273Z,6.08
2019-05-29T17:30:18.871Z,6.30
2019-05-29T17:32:49.093Z,6.55
2019-05-29T17:35:19.339Z,6.50
2019-05-29T17:37:52.546Z,7.03
2019-05-29T17:40:23.525Z,6.35
2019-05-29T17:43:28.655Z,6.28
2019-05-29T17:45:57.594Z,7.33
2019-05-29T17:48:28.033Z,6.33
2019-05-29T17:50:58.315Z,6.87
2019-05-29T17:53:28.569Z,6.00
2019-05-29T17:55:58.818Z,6.87
2019-05-29T17:58:31.018Z,6.93
2019-05-29T18:01:01.383Z,6.53
2019-05-29T18:03:34.715Z,6.65
2019-05-29T18:06:04.989Z,7.28
2019-05-29T18:08:35.281Z,6.92
2019-05-29T18:11:05.489Z,6.58
2019-05-29T18:13:35.948Z,6.37
2019-05-29T18:16:06.230Z,6.03
2019-05-29T18:18:36.548Z,6.25
2019-05-29T18:21:06.751Z,6.20
2019-05-29T18:23:37.003Z,5.30
2019-05-29T18:26:07.209Z,5.83
2019-05-29T18:28:37.624Z,5.60
2019-05-29T18:31:07.920Z,6.33
2019-05-29T18:33:38.136Z,6.37
2019-05-29T18:36:08.406Z,6.00
2019-05-29T18:38:38.617Z,6.87
2019-05-29T18:41:08.888Z,6.92
2019-05-29T18:43:39.172Z,6.28
2019-05-29T18:46:09.374Z,6.60
2019-05-29T18:48:39.687Z,6.45
2019-05-29T18:51:09.878Z,7.10
2019-05-29T18:53:40.097Z,6.78
2019-05-29T18:56:10.320Z,7.05
2019-05-29T18:58:40.546Z,6.97
2019-05-29T19:01:10.727Z,6.67
2019-05-29T19:03:41.018Z,7.75
2019-05-29T19:06:11.409Z,7.37
2019-05-29T19:08:41.697Z,8.47
2019-05-29T19:11:13.509Z,8.15
2019-05-29T19:13:43.790Z,8.28
2019-05-29T19:16:13.999Z,8.10
2019-05-29T19:18:44.435Z,8.73
2019-05-29T19:21:14.762Z,9.03
2019-05-29T19:23:45.004Z,8.70
2019-05-29T19:26:15.430Z,9.30
2019-05-29T19:28:45.722Z,9.70
2019-05-29T19:31:16.014Z,9.95
2019-05-29T19:33:46.237Z,9.53
2019-05-29T19:36:16.657Z,9.68
2019-05-29T19:38:46.968Z,9.35
2019-05-29T19:41:17.489Z,10.05
2019-05-29T19:43:47.725Z,9.48
2019-05-29T19:46:18.017Z,8.70
2019-05-29T19:48:48.229Z,10.28
2019-05-29T19:51:18.449Z,9.98
2019-05-29T19:53:48.684Z,9.23
2019-05-29T19:56:19.091Z,9.75
2019-05-29T19:59:09.633Z,10.03
2019-05-29T20:04:11.204Z,9.98
2019-05-29T20:06:41.599Z,10.47
2019-05-29T20:09:11.822Z,9.35
2019-05-29T20:11:42.107Z,9.45
2019-05-29T20:14:12.463Z,9.55
2019-05-29T20:16:42.758Z,10.20
2019-05-29T20:19:13.047Z,9.37
2019-05-29T20:21:43.327Z,10.60
2019-05-29T20:24:13.527Z,11.20
2019-05-29T20:26:43.735Z,11.08
2019-05-29T20:29:14.063Z,11.45
2019-05-29T20:31:44.284Z,12.13
2019-05-29T20:34:14.566Z,13.43
2019-05-29T20:36:44.770Z,14.15
2019-05-29T20:39:14.972Z,13.75
2019-05-29T20:41:45.767Z,13.18
2019-05-29T20:44:15.998Z,14.07
2019-05-29T20:46:46.266Z,14.73
2019-05-29T20:49:16.924Z,14.58
2019-05-29T20:51:47.216Z,14.05
2019-05-29T20:54:17.644Z,14.60
2019-05-29T20:56:48.188Z,15.30
2019-05-29T20:59:18.470Z,14.73
2019-05-29T21:01:51.104Z,13.95
2019-05-29T21:04:21.627Z,15.23
2019-05-29T21:06:51.897Z,14.60
2019-05-29T21:09:22.122Z,15.65
2019-05-29T21:11:52.319Z,15.78
2019-05-29T21:14:22.545Z,15.78
2019-05-29T21:16:52.753Z,16.20
2019-05-29T21:19:23.640Z,17.07
2019-05-29T21:21:53.903Z,16.87
2019-05-29T21:24:24.405Z,15.83
2019-05-29T21:26:54.659Z,16.90
2019-05-29T21:29:24.870Z,16.42
2019-05-29T21:31:55.161Z,17.17
2019-05-29T21:34:25.382Z,16.62
2019-05-29T21:36:55.585Z,16.52
2019-05-29T21:39:25.799Z,15.23
2019-05-29T21:41:56.022Z,14.73
2019-05-29T21:44:26.272Z,14.33
2019-05-29T21:46:56.494Z,14.68
2019-05-29T21:49:26.691Z,14.68
2019-05-29T21:51:56.941Z,14.75
2019-05-29T21:54:27.200Z,14.05
2019-05-29T21:56:57.419Z,14.25
2019-05-29T21:59:27.612Z,14.28
2019-05-29T22:05:22.036Z,13.93
2019-05-29T22:07:52.233Z,13.98
2019-05-29T22:10:25.960Z,15.80
2019-05-29T22:12:54.557Z,13.98
2019-05-29T22:15:24.778Z,14.93
2019-05-29T22:17:55.013Z,15.35
2019-05-29T22:20:25.268Z,14.63
2019-05-29T22:22:55.484Z,13.58
2019-05-29T22:25:25.932Z,14.57
2019-05-29T22:27:57.365Z,12.63
2019-05-29T22:30:27.959Z,12.53
2019-05-29T22:32:59.462Z,12.70
2019-05-29T22:35:30.203Z,12.98
2019-05-29T22:38:01.699Z,12.55
2019-05-29T22:40:32.376Z,13.18
2019-05-29T22:43:02.746Z,14.20
2019-05-29T22:45:53.723Z,14.63
2019-05-29T22:48:24.048Z,14.35
2019-05-29T22:50:54.269Z,14.07
2019-05-29T22:53:24.571Z,14.40
2019-05-29T22:55:55.756Z,14.70
2019-05-29T22:58:26.134Z,13.90
2019-05-29T23:00:56.440Z,13.90
2019-05-29T23:03:26.626Z,12.58
2019-05-29T23:05:58.163Z,12.70
2019-05-29T23:08:28.565Z,11.08
2019-05-29T23:10:58.786Z,11.95
2019-05-29T23:13:29.053Z,11.90
2019-05-29T23:16:00.673Z,11.18
2019-05-29T23:18:31.039Z,11.80
2019-05-29T23:21:01.255Z,11.35
2019-05-29T23:23:31.446Z,11.83
2019-05-29T23:26:02.846Z,12.13
2019-05-29T23:28:33.453Z,12.40
2019-05-29T23:31:03.670Z,12.28
2019-05-29T23:33:33.862Z,13.10
2019-05-29T23:36:04.168Z,13.30
2019-05-29T23:38:36.061Z,14.73
2019-05-29T23:41:06.370Z,14.85
2019-05-29T23:43:36.574Z,13.95
2019-05-29T23:46:06.800Z,7.70
2019-05-29T23:48:37.000Z,13.55
2019-05-29T23:51:07.332Z,14.87
2019-05-29T23:53:37.526Z,15.03
2019-05-29T23:56:08.019Z,15.27
2019-05-29T23:58:38.288Z,15.15
